createdAt,value
2018-07-13T00:00:03.162Z,98132.30
2018-07-13T00:02:31.976Z,98133.41
2018-07-13T00:05:00.780Z,98137.92
2018-07-13T00:07:29.493Z,98133.08
2018-07-13T00:09:58.266Z,98140.77
2018-07-13T00:12:27.186Z,98138.38
2018-07-13T00:15:07.720Z,98133.80
2018-07-13T00:17:36.743Z,98137.81
2018-07-13T00:20:06.438Z,98132.59
2018-07-13T00:22:35.796Z,98137.77
2018-07-13T00:25:04.983Z,98134.17
2018-07-13T00:27:33.690Z,98145.91
2018-07-13T00:30:02.593Z,98141.34
2018-07-13T00:32:31.514Z,98151.53
2018-07-13T00:35:00.522Z,98144.65
2018-07-13T00:37:29.430Z,98140.91
2018-07-13T00:39:58.251Z,98149.27
2018-07-13T00:42:27.081Z,98146.27
2018-07-13T00:44:55.865Z,98152.79
2018-07-13T00:47:24.633Z,98150.16
2018-07-13T00:49:53.646Z,98148.25
2018-07-13T00:52:22.493Z,98153.44
2018-07-13T00:54:51.417Z,98155.05
2018-07-13T00:57:20.234Z,98152.57
2018-07-13T00:59:49.103Z,98148.22
2018-07-13T01:02:18.217Z,98149.59
2018-07-13T01:04:47.046Z,98148.86
2018-07-13T01:07:15.878Z,98148.88
2018-07-13T01:09:44.745Z,98151.20
2018-07-13T01:12:13.458Z,98148.92
2018-07-13T01:14:42.328Z,98148.48
2018-07-13T01:17:11.080Z,98151.90
2018-07-13T01:19:39.877Z,98151.24
2018-07-13T01:22:08.788Z,98149.08
2018-07-13T01:24:37.604Z,98152.83
2018-07-13T01:27:06.318Z,98153.62
2018-07-13T01:29:35.238Z,98154.19
2018-07-13T01:32:04.278Z,98151.03
2018-07-13T01:34:33.047Z,98151.52
2018-07-13T01:37:01.835Z,98153.12
2018-07-13T01:39:30.782Z,98153.70
2018-07-13T01:41:59.540Z,98152.21
2018-07-13T01:44:29.311Z,98152.70
2018-07-13T01:46:58.337Z,98152.80
2018-07-13T01:49:27.176Z,98150.68
2018-07-13T01:51:56.044Z,98155.45
2018-07-13T01:54:24.805Z,98157.08
2018-07-13T01:56:53.585Z,98151.49
2018-07-13T01:59:22.455Z,98145.94
2018-07-13T02:01:51.542Z,98154.14
2018-07-13T02:04:20.705Z,98159.92
2018-07-13T02:06:49.622Z,98161.41
2018-07-13T02:09:18.478Z,98158.55
2018-07-13T02:11:47.590Z,98154.81
2018-07-13T02:14:16.484Z,98160.27
2018-07-13T02:16:45.326Z,98163.47
2018-07-13T02:19:14.090Z,98162.77
2018-07-13T02:21:42.827Z,98169.48
2018-07-13T02:24:11.634Z,98169.95
2018-07-13T02:26:40.549Z,98167.80
2018-07-13T02:29:09.426Z,98170.27
2018-07-13T02:31:38.214Z,98174.62
2018-07-13T02:34:07.169Z,98180.07
2018-07-13T02:36:36.007Z,98173.02
2018-07-13T02:39:06.314Z,98181.67
2018-07-13T02:41:35.111Z,98177.22
2018-07-13T02:44:03.917Z,98173.12
2018-07-13T02:46:33.102Z,98184.38
2018-07-13T02:49:02.005Z,98190.73
2018-07-13T02:51:30.847Z,98192.30
2018-07-13T02:53:59.782Z,98194.80
2018-07-13T02:56:28.584Z,98197.98
2018-07-13T02:58:57.327Z,98192.48
2018-07-13T03:01:26.260Z,98196.34
2018-07-13T03:03:55.081Z,98204.19
2018-07-13T03:06:24.149Z,98206.58
2018-07-13T03:08:52.960Z,98206.58
2018-07-13T03:11:21.890Z,98206.58
2018-07-13T03:13:51.199Z,98207.71
2018-07-13T03:16:20.040Z,98213.17
2018-07-13T03:18:48.805Z,98213.83
2018-07-13T03:21:17.607Z,98222.23
2018-07-13T03:23:46.370Z,98220.53
2018-07-13T03:26:15.126Z,98221.66
2018-07-13T03:28:43.985Z,98231.38
2018-07-13T03:31:12.673Z,98227.94
2018-07-13T03:33:41.420Z,98231.80
2018-07-13T03:36:10.178Z,98234.86
2018-07-13T03:38:39.201Z,98238.95
2018-07-13T03:41:08.008Z,98236.11
2018-07-13T03:43:37.050Z,98238.95
2018-07-13T03:46:06.890Z,98230.55
2018-07-13T03:48:36.109Z,98236.00
2018-07-13T03:51:04.979Z,98235.73
2018-07-13T03:53:34.168Z,98232.55
2018-07-13T03:56:03.596Z,98233.77
2018-07-13T03:58:33.078Z,98235.70
2018-07-13T04:01:01.911Z,98235.47
2018-07-13T04:03:31.312Z,98224.00
2018-07-13T04:06:00.567Z,98230.02
2018-07-13T04:08:29.900Z,98240.70
2018-07-13T04:10:59.105Z,98234.45
2018-07-13T04:13:28.325Z,98229.80
2018-07-13T04:15:57.917Z,98239.79
2018-07-13T04:18:27.085Z,98235.47
2018-07-13T04:20:56.403Z,98235.93
2018-07-13T04:23:25.911Z,98237.78
2018-07-13T04:25:55.110Z,98238.46
2018-07-13T04:28:24.401Z,98240.13
2018-07-13T04:30:53.781Z,98235.58
2018-07-13T04:33:23.075Z,98240.54
2018-07-13T04:35:52.207Z,98239.34
2018-07-13T04:38:21.712Z,98237.97
2018-07-13T04:40:51.397Z,98239.26
2018-07-13T04:43:20.367Z,98243.23
2018-07-13T04:45:49.642Z,98240.09
2018-07-13T04:48:18.813Z,98243.98
2018-07-13T04:50:47.995Z,98244.27
2018-07-13T04:53:17.207Z,98245.64
2018-07-13T04:55:46.167Z,98249.42
2018-07-13T04:58:15.217Z,98249.53
2018-07-13T05:00:44.628Z,98249.67
2018-07-13T05:03:13.784Z,98252.73
2018-07-13T05:05:43.206Z,98251.75
2018-07-13T05:08:12.680Z,98248.13
2018-07-13T05:10:42.336Z,98251.67
2018-07-13T05:13:11.506Z,98247.37
2018-07-13T05:15:40.658Z,98244.64
2018-07-13T05:18:09.732Z,98241.33
2018-07-13T05:20:38.802Z,98243.50
2018-07-13T05:23:08.113Z,98241.47
2018-07-13T05:25:37.181Z,98238.08
2018-07-13T05:28:06.712Z,98236.48
2018-07-13T05:30:35.943Z,98237.63
2018-07-13T05:33:05.048Z,98241.93
2018-07-13T05:35:34.464Z,98245.25
2018-07-13T05:38:03.735Z,98247.87
2018-07-13T05:40:33.081Z,98242.45
2018-07-13T05:43:02.229Z,98244.05
2018-07-13T05:45:31.404Z,98243.80
2018-07-13T05:48:00.387Z,98251.78
2018-07-13T05:50:29.662Z,98246.41
2018-07-13T05:52:58.515Z,98248.92
2018-07-13T05:55:27.918Z,98252.19
2018-07-13T05:57:57.233Z,98251.52
2018-07-13T06:00:26.322Z,98258.06
2018-07-13T06:02:55.281Z,98261.30
2018-07-13T06:05:24.342Z,98264.91
2018-07-13T06:07:53.630Z,98270.84
2018-07-13T06:10:22.493Z,98265.50
2018-07-13T06:12:51.991Z,98274.14
2018-07-13T06:15:20.731Z,98281.41
2018-07-13T06:17:49.572Z,98273.30
2018-07-13T06:20:18.401Z,98278.09
2018-07-13T06:22:47.459Z,98268.25
2018-07-13T06:25:16.547Z,98275.42
2018-07-13T06:27:45.520Z,98274.55
2018-07-13T06:30:14.432Z,98270.26
2018-07-13T06:32:43.337Z,98274.55
2018-07-13T06:35:12.312Z,98271.67
2018-07-13T06:37:41.304Z,98270.82
2018-07-13T06:40:10.244Z,98270.22
2018-07-13T06:42:39.254Z,98267.48
2018-07-13T06:45:08.484Z,98267.11
2018-07-13T06:47:37.541Z,98264.84
2018-07-13T06:50:06.931Z,98270.42
2018-07-13T06:52:36.051Z,98272.45
2018-07-13T06:55:05.234Z,98273.39
2018-07-13T06:57:44.847Z,98271.19
2018-07-13T07:01:01.927Z,98271.66
2018-07-13T07:03:32.658Z,98275.69
2018-07-13T07:06:10.877Z,98279.64
2018-07-13T07:08:43.947Z,98283.77
2018-07-13T07:11:12.899Z,98282.20
2018-07-13T07:13:43.582Z,98275.53
2018-07-13T07:16:12.532Z,98275.09
2018-07-13T07:18:41.481Z,98281.73
2018-07-13T07:21:10.583Z,98282.28
2018-07-13T07:23:39.579Z,98286.98
2018-07-13T07:26:08.668Z,98289.16
2018-07-13T07:28:37.682Z,98282.08
2018-07-13T07:31:06.785Z,98286.05
2018-07-13T07:33:35.657Z,98285.14
2018-07-13T07:36:04.651Z,98288.95
2018-07-13T07:38:33.577Z,98283.77
2018-07-13T07:41:02.318Z,98293.31
2018-07-13T07:43:31.238Z,98288.98
2018-07-13T07:46:00.563Z,98282.62
2018-07-13T07:48:29.434Z,98296.79
2018-07-13T07:50:58.320Z,98286.68
2018-07-13T07:53:27.237Z,98290.67
2018-07-13T07:55:56.000Z,98281.24
2018-07-13T07:58:24.909Z,98286.53
2018-07-13T08:00:53.781Z,98289.20
2018-07-13T08:03:22.876Z,98288.75
2018-07-13T08:05:51.903Z,98279.81
2018-07-13T08:08:20.823Z,98284.84
2018-07-13T08:10:49.709Z,98280.77
2018-07-13T08:13:18.545Z,98274.18
2018-07-13T08:15:47.530Z,98274.55
2018-07-13T08:18:16.450Z,98276.66
2018-07-13T08:20:47.248Z,98279.73
2018-07-13T08:23:17.115Z,98279.44
2018-07-13T08:25:48.410Z,98266.03
2018-07-13T08:28:18.585Z,98270.13
2018-07-13T08:30:55.679Z,98267.47
2018-07-13T08:33:24.646Z,98267.67
2018-07-13T08:35:53.542Z,98267.02
2018-07-13T08:38:22.776Z,98263.97
2018-07-13T08:40:51.516Z,98265.96
2018-07-13T08:43:20.581Z,98261.19
2018-07-13T08:45:50.197Z,98263.00
2018-07-13T08:48:19.223Z,98261.55
2018-07-13T08:50:48.385Z,98265.67
2018-07-13T08:53:18.402Z,98263.30
2018-07-13T08:55:47.433Z,98270.94
2018-07-13T08:58:17.407Z,98262.75
2018-07-13T09:00:46.287Z,98269.42
2018-07-13T09:03:15.184Z,98260.51
2018-07-13T09:05:44.066Z,98270.33
2018-07-13T09:08:12.886Z,98263.84
2018-07-13T09:10:42.252Z,98263.75
2018-07-13T09:13:11.185Z,98266.00
2018-07-13T09:15:40.154Z,98263.59
2018-07-13T09:18:09.167Z,98267.61
2018-07-13T09:20:38.039Z,98261.72
2018-07-13T09:23:07.134Z,98271.18
2018-07-13T09:25:36.205Z,98265.64
2018-07-13T09:28:05.158Z,98263.41
2018-07-13T09:30:34.045Z,98261.58
2018-07-13T09:33:04.468Z,98265.42
2018-07-13T09:35:33.278Z,98269.88
2018-07-13T09:38:02.272Z,98261.72
2018-07-13T09:40:31.590Z,98260.52
2018-07-13T09:43:01.474Z,98267.55
2018-07-13T09:45:30.256Z,98266.41
2018-07-13T09:47:59.100Z,98270.13
2018-07-13T09:50:28.375Z,98264.73
2018-07-13T09:52:57.707Z,98271.45
2018-07-13T09:55:26.702Z,98258.84
2018-07-13T09:57:55.825Z,98264.88
2018-07-13T10:00:28.887Z,98255.19
2018-07-13T10:02:57.842Z,98256.66
2018-07-13T10:05:26.726Z,98253.86
2018-07-13T10:07:55.822Z,98260.45
2018-07-13T10:10:24.651Z,98259.85
2018-07-13T10:12:53.978Z,98250.30
2018-07-13T10:15:23.209Z,98251.48
2018-07-13T10:17:52.185Z,98252.52
2018-07-13T10:20:21.031Z,98250.72
2018-07-13T10:22:49.996Z,98253.63
2018-07-13T10:25:18.955Z,98249.37
2018-07-13T10:27:47.782Z,98249.70
2018-07-13T10:30:16.898Z,98241.68
2018-07-13T10:32:46.710Z,98247.48
2018-07-13T10:35:16.276Z,98246.45
2018-07-13T10:37:45.479Z,98250.91
2018-07-13T10:40:14.490Z,98247.00
2018-07-13T10:42:43.291Z,98251.18
2018-07-13T10:45:12.166Z,98238.29
2018-07-13T10:47:41.118Z,98234.02
2018-07-13T10:50:10.124Z,98238.47
2018-07-13T10:52:39.017Z,98230.84
2018-07-13T10:55:08.026Z,98230.55
2018-07-13T10:57:37.107Z,98230.38
2018-07-13T11:00:05.921Z,98231.67
2018-07-13T11:02:35.020Z,98225.39
2018-07-13T11:05:04.087Z,98228.92
2018-07-13T11:07:32.960Z,98217.06
2018-07-13T11:10:01.943Z,98222.81
2018-07-13T11:12:30.684Z,98216.29
2018-07-13T11:14:59.536Z,98212.73
2018-07-13T11:17:30.197Z,98214.13
2018-07-13T11:19:59.093Z,98213.52
2018-07-13T11:22:27.999Z,98205.82
2018-07-13T11:24:56.789Z,98205.03
2018-07-13T11:27:26.106Z,98199.30
2018-07-13T11:29:54.903Z,98192.36
2018-07-13T11:32:23.628Z,98199.66
2018-07-13T11:34:52.518Z,98192.94
2018-07-13T11:37:21.282Z,98196.80
2018-07-13T11:39:49.989Z,98189.78
2018-07-13T11:42:18.906Z,98192.67
2018-07-13T11:44:47.675Z,98192.95
2018-07-13T11:47:16.382Z,98194.36
2018-07-13T11:49:45.221Z,98187.64
2018-07-13T11:52:14.246Z,98180.58
2018-07-13T11:54:43.208Z,98180.16
2018-07-13T11:57:12.188Z,98180.20
2018-07-13T11:59:41.106Z,98176.00
2018-07-13T12:02:09.972Z,98177.65
2018-07-13T12:04:38.890Z,98189.00
2018-07-13T12:07:07.775Z,98176.65
2018-07-13T12:09:36.585Z,98170.67
2018-07-13T12:12:05.679Z,98172.66
2018-07-13T12:14:34.469Z,98167.17
2018-07-13T12:17:04.051Z,98166.45
2018-07-13T12:19:33.194Z,98163.75
2018-07-13T12:22:02.047Z,98162.49
2018-07-13T12:24:30.958Z,98165.41
2018-07-13T12:26:59.915Z,98159.56
2018-07-13T12:29:28.729Z,98163.41
2018-07-13T12:31:57.447Z,98160.29
2018-07-13T12:34:26.416Z,98151.41
2018-07-13T12:36:55.222Z,98161.22
2018-07-13T12:39:24.008Z,98151.61
2018-07-13T12:41:53.230Z,98161.81
2018-07-13T12:44:22.105Z,98149.92
2018-07-13T12:46:50.990Z,98146.02
2018-07-13T12:49:19.741Z,98143.00
2018-07-13T12:51:48.849Z,98139.20
2018-07-13T12:54:17.994Z,98139.26
2018-07-13T12:56:46.833Z,98144.53
2018-07-13T12:59:15.592Z,98143.63
2018-07-13T13:01:44.457Z,98134.14
2018-07-13T13:04:13.367Z,98133.22
2018-07-13T13:06:42.186Z,98136.08
2018-07-13T13:09:11.441Z,98139.29
2018-07-13T13:11:40.326Z,98136.08
2018-07-13T13:14:09.170Z,98131.69
2018-07-13T13:16:38.262Z,98131.59
2018-07-13T13:19:07.583Z,98130.89
2018-07-13T13:21:36.376Z,98128.98
2018-07-13T13:24:04.995Z,98132.66
2018-07-13T13:26:34.074Z,98134.69
2018-07-13T13:29:02.962Z,98124.72
2018-07-13T13:31:31.643Z,98124.94
2018-07-13T13:34:00.547Z,98125.23
2018-07-13T13:36:29.483Z,98119.64
2018-07-13T13:38:58.335Z,98122.17
2018-07-13T13:41:27.190Z,98123.39
2018-07-13T13:43:55.952Z,98120.84
2018-07-13T13:46:24.685Z,98123.30
2018-07-13T13:48:53.656Z,98117.50
2018-07-13T13:51:22.632Z,98105.48
2018-07-13T13:53:51.489Z,98113.73
2018-07-13T13:56:20.631Z,98106.27
2018-07-13T13:58:49.542Z,98116.69
2018-07-13T14:01:18.528Z,98104.42
2018-07-13T14:03:47.382Z,98105.98
2018-07-13T14:06:16.152Z,98119.03
2018-07-13T14:08:45.015Z,98110.34
2018-07-13T14:11:13.988Z,98113.75
2018-07-13T14:13:43.076Z,98112.84
2018-07-13T14:16:12.086Z,98121.64
2018-07-13T14:18:41.034Z,98123.35
2018-07-13T14:21:11.167Z,98114.20
2018-07-13T14:23:40.054Z,98121.04
2018-07-13T14:26:09.634Z,98115.41
2018-07-13T14:28:38.696Z,98120.07
2018-07-13T14:31:07.554Z,98110.69
2018-07-13T14:33:36.518Z,98109.36
2018-07-13T14:36:05.665Z,98098.58
2018-07-13T14:38:34.583Z,98105.47
2018-07-13T14:41:03.576Z,98100.33
2018-07-13T14:43:32.342Z,98105.88
2018-07-13T14:46:01.395Z,98099.89
2018-07-13T14:48:30.244Z,98098.42
2018-07-13T14:50:59.343Z,98093.19
2018-07-13T14:53:28.124Z,98092.59
2018-07-13T14:55:57.166Z,98091.71
2018-07-13T14:58:26.330Z,98095.36
2018-07-13T15:00:55.321Z,98101.53
2018-07-13T15:03:24.090Z,98101.25
2018-07-13T15:05:53.284Z,98090.72
2018-07-13T15:08:21.993Z,98086.44
2018-07-13T15:10:50.978Z,98084.59
2018-07-13T15:13:19.795Z,98084.36
2018-07-13T15:15:48.851Z,98092.02
2018-07-13T15:18:17.786Z,98099.97
2018-07-13T15:20:46.603Z,98107.03
2018-07-13T15:23:15.866Z,98102.30
2018-07-13T15:25:44.933Z,98096.13
2018-07-13T15:28:13.663Z,98099.86
2018-07-13T15:30:42.675Z,98103.14
2018-07-13T15:33:11.910Z,98097.93
2018-07-13T15:35:40.888Z,98102.50
2018-07-13T15:38:09.835Z,98105.41
2018-07-13T15:40:39.118Z,98102.69
2018-07-13T15:43:08.260Z,98107.16
2018-07-13T15:45:37.096Z,98108.94
2018-07-13T15:48:06.073Z,98115.11
2018-07-13T15:50:35.117Z,98106.14
2018-07-13T15:53:05.135Z,98109.83
2018-07-13T15:55:39.226Z,98098.33
2018-07-13T15:58:08.901Z,98100.19
2018-07-13T16:00:37.908Z,98100.89
2018-07-13T16:03:06.997Z,98105.99
2018-07-13T16:05:36.428Z,98104.80
2018-07-13T16:08:05.118Z,98112.26
2018-07-13T16:10:34.280Z,98112.16
2018-07-13T16:13:03.198Z,98108.70
2018-07-13T16:15:32.424Z,98107.45
2018-07-13T16:18:01.242Z,98099.88
2018-07-13T16:20:30.010Z,98098.36
2018-07-13T16:22:59.066Z,98100.77
2018-07-13T16:25:28.183Z,98097.77
2018-07-13T16:27:57.299Z,98094.55
2018-07-13T16:30:26.371Z,98093.84
2018-07-13T16:32:55.187Z,98092.22
2018-07-13T16:35:23.987Z,98093.59
2018-07-13T16:37:53.027Z,98089.30
2018-07-13T16:40:22.035Z,98087.20
2018-07-13T16:42:51.638Z,98090.92
2018-07-13T16:45:20.685Z,98086.02
2018-07-13T16:47:49.508Z,98082.39
2018-07-13T16:50:18.434Z,98081.84
2018-07-13T16:52:47.730Z,98074.57
2018-07-13T16:55:16.556Z,98074.70
2018-07-13T16:57:45.401Z,98076.83
2018-07-13T17:00:14.232Z,98072.58
2018-07-13T17:02:43.183Z,98068.39
2018-07-13T17:05:12.030Z,98077.08
2018-07-13T17:07:40.841Z,98077.31
2018-07-13T17:10:09.913Z,98074.25
2018-07-13T17:12:38.882Z,98076.97
2018-07-13T17:15:08.082Z,98069.26
2018-07-13T17:17:37.466Z,98072.66
2018-07-13T17:20:06.374Z,98072.99
2018-07-13T17:22:35.102Z,98067.77
2018-07-13T17:25:03.962Z,98069.89
2018-07-13T17:27:32.893Z,98073.18
2018-07-13T17:30:01.888Z,98071.92
2018-07-13T17:32:30.997Z,98070.30
2018-07-13T17:34:59.842Z,98075.55
2018-07-13T17:37:29.342Z,98076.36
2018-07-13T17:39:58.595Z,98079.14
2018-07-13T17:42:27.635Z,98082.34
2018-07-13T17:44:56.615Z,98084.04
2018-07-13T17:47:25.787Z,98082.91
2018-07-13T17:49:54.750Z,98081.97
2018-07-13T17:52:23.771Z,98076.66
2018-07-13T17:54:52.692Z,98078.48
2018-07-13T17:57:21.666Z,98083.28
2018-07-13T17:59:50.478Z,98076.55
2018-07-13T18:02:19.298Z,98075.45
2018-07-13T18:04:48.260Z,98074.32
2018-07-13T18:07:17.250Z,98082.24
2018-07-13T18:09:46.269Z,98075.17
2018-07-13T18:12:15.219Z,98083.34
2018-07-13T18:14:44.110Z,98087.70
2018-07-13T18:17:13.125Z,98096.01
2018-07-13T18:19:42.225Z,98104.88
2018-07-13T18:22:11.002Z,98104.09
2018-07-13T18:24:39.820Z,98105.69
2018-07-13T18:27:08.780Z,98106.66
2018-07-13T18:29:37.746Z,98108.05
2018-07-13T18:32:07.664Z,98109.02
2018-07-13T18:34:36.836Z,98113.94
2018-07-13T18:37:05.805Z,98117.69
2018-07-13T18:39:34.613Z,98116.69
2018-07-13T18:42:03.339Z,98121.38
2018-07-13T18:44:32.268Z,98118.67
2018-07-13T18:47:01.210Z,98120.38
2018-07-13T18:49:30.127Z,98121.39
2018-07-13T18:51:59.026Z,98121.56
2018-07-13T18:54:27.805Z,98117.99
2018-07-13T18:56:56.720Z,98119.40
2018-07-13T18:59:25.518Z,98125.68
2018-07-13T19:01:54.463Z,98125.68
2018-07-13T19:04:23.898Z,98131.58
2018-07-13T19:06:53.100Z,98130.20
2018-07-13T19:09:22.076Z,98137.00
2018-07-13T19:11:51.176Z,98140.16
2018-07-13T19:14:19.985Z,98141.86
2018-07-13T19:16:48.911Z,98144.59
2018-07-13T19:19:17.840Z,98140.56
2018-07-13T19:21:46.842Z,98141.95
2018-07-13T19:24:15.882Z,98138.95
2018-07-13T19:26:44.694Z,98140.13
2018-07-13T19:29:14.127Z,98132.41
2018-07-13T19:31:43.094Z,98132.94
2018-07-13T19:34:12.103Z,98137.36
2018-07-13T19:36:41.342Z,98136.47
2018-07-13T19:39:10.239Z,98134.78
2018-07-13T19:41:39.318Z,98138.20
2018-07-13T19:44:08.484Z,98149.67
2018-07-13T19:46:37.440Z,98152.08
2018-07-13T19:49:06.626Z,98150.30
2018-07-13T19:51:35.506Z,98155.22
2018-07-13T19:54:04.641Z,98154.78
2018-07-13T19:56:33.382Z,98155.93
2018-07-13T19:59:02.154Z,98156.25
2018-07-13T20:01:31.071Z,98156.06
2018-07-13T20:04:00.065Z,98158.79
2018-07-13T20:06:29.042Z,98152.80
2018-07-13T20:08:58.236Z,98152.84
2018-07-13T20:11:27.340Z,98156.53
2018-07-13T20:13:56.385Z,98162.53
2018-07-13T20:16:25.227Z,98163.81
2018-07-13T20:18:54.215Z,98166.29
2018-07-13T20:21:23.003Z,98165.09
2018-07-13T20:23:52.168Z,98164.23
2018-07-13T20:26:21.627Z,98159.11
2018-07-13T20:28:50.480Z,98168.25
2018-07-13T20:31:19.711Z,98170.59
2018-07-13T20:33:48.781Z,98166.47
2018-07-13T20:36:17.820Z,98165.05
2018-07-13T20:38:46.936Z,98163.55
2018-07-13T20:41:15.704Z,98167.19
2018-07-13T20:43:44.645Z,98168.25
2018-07-13T20:46:13.544Z,98168.34
2018-07-13T20:48:42.742Z,98171.26
2018-07-13T20:51:11.751Z,98174.38
2018-07-13T20:53:40.521Z,98177.15
2018-07-13T20:56:09.419Z,98175.40
2018-07-13T20:58:38.430Z,98180.10
2018-07-13T21:01:07.624Z,98181.64
2018-07-13T21:03:36.705Z,98182.11
2018-07-13T21:06:05.573Z,98185.06
2018-07-13T21:08:34.630Z,98184.57
2018-07-13T21:11:03.669Z,98190.60
2018-07-13T21:13:32.559Z,98189.97
2018-07-13T21:16:01.977Z,98199.45
2018-07-13T21:18:31.367Z,98201.91
2018-07-13T21:21:00.307Z,98200.75
2018-07-13T21:23:29.447Z,98199.70
2018-07-13T21:25:58.208Z,98207.05
2018-07-13T21:28:27.382Z,98208.66
2018-07-13T21:30:56.321Z,98208.45
2018-07-13T21:33:25.181Z,98207.39
2018-07-13T21:35:54.462Z,98205.42
2018-07-13T21:38:23.221Z,98207.53
2018-07-13T21:40:52.002Z,98208.81
2018-07-13T21:43:21.070Z,98206.59
2018-07-13T21:45:49.782Z,98207.87
2018-07-13T21:48:19.327Z,98213.14
2018-07-13T21:50:48.231Z,98205.28
2018-07-13T21:53:17.187Z,98202.48
2018-07-13T21:55:46.212Z,98210.98
2018-07-13T21:58:15.071Z,98209.24
2018-07-13T22:00:44.192Z,98214.55
2018-07-13T22:03:12.946Z,98211.28
2018-07-13T22:05:41.893Z,98213.95
2018-07-13T22:08:10.645Z,98210.48
2018-07-13T22:10:39.585Z,98206.16
2018-07-13T22:13:08.564Z,98211.64
2018-07-13T22:15:37.438Z,98205.85
2018-07-13T22:18:06.419Z,98213.59
2018-07-13T22:20:35.262Z,98218.65
2018-07-13T22:23:03.948Z,98225.87
2018-07-13T22:25:33.047Z,98222.19
2018-07-13T22:28:02.119Z,98219.23
2018-07-13T22:30:31.024Z,98222.40
2018-07-13T22:32:59.869Z,98218.77
2018-07-13T22:35:28.637Z,98218.06
2018-07-13T22:37:57.713Z,98221.06
2018-07-13T22:40:26.594Z,98223.13
2018-07-13T22:42:55.362Z,98222.05
2018-07-13T22:45:24.431Z,98218.58
2018-07-13T22:47:53.317Z,98217.54
2018-07-13T22:50:22.322Z,98216.86
2018-07-13T22:52:51.234Z,98222.05
2018-07-13T22:55:20.127Z,98219.43
2018-07-13T22:57:48.982Z,98223.64
2018-07-13T23:00:18.108Z,98216.07
2018-07-13T23:02:46.930Z,98219.22
2018-07-13T23:05:15.638Z,98223.94
2018-07-13T23:07:44.496Z,98219.08
2018-07-13T23:10:13.555Z,98217.49
2018-07-13T23:12:42.310Z,98216.01
2018-07-13T23:15:11.542Z,98224.77
2018-07-13T23:17:40.421Z,98221.38
2018-07-13T23:20:09.339Z,98213.64
2018-07-13T23:22:38.366Z,98211.95
2018-07-13T23:25:07.363Z,98212.30
2018-07-13T23:27:36.314Z,98215.95
2018-07-13T23:30:05.121Z,98217.46
2018-07-13T23:32:34.086Z,98220.45
2018-07-13T23:35:02.810Z,98223.33
2018-07-13T23:37:31.553Z,98213.99
2018-07-13T23:40:00.759Z,98217.45
2018-07-13T23:42:29.677Z,98222.48
2018-07-13T23:44:58.467Z,98213.38
2018-07-13T23:47:27.434Z,98211.13
2018-07-13T23:49:56.332Z,98210.01
2018-07-13T23:52:25.238Z,98214.11
2018-07-13T23:54:54.090Z,98211.68
2018-07-13T23:57:22.973Z,98202.78
2018-07-13T23:59:51.901Z,98209.63
